This is the latest recevied weather packets stored in our database for station/object K1NOT-WX. If no packets are shown the sender has not sent any weather packets the latest 10 day(s).
| Time | Temp. | Humidity | Pressure | Rain* | Wind** | Luminosity | Snow |
|---|---|---|---|---|---|---|---|
| 1777619533 | 13.89° C | 74% | 1007.4 hPa | 0 mm | - | - | - |
| 1777618633 | 14.44° C | 72% | 1007.4 hPa | 0 mm | - | - | - |
| 1777617733 | 15° C | 69% | 1007.4 hPa | 0 mm | - | - | - |
| 1777616833 | 15.56° C | 66% | 1007.4 hPa | 0 mm | - | - | - |
| 1777615933 | 15.56° C | 64% | 1007.4 hPa | 0 mm | - | - | - |
| 1777615033 | 16.11° C | 62% | 1007.8 hPa | 0 mm | - | - | - |
| 1777614133 | 16.67° C | 60% | 1007.8 hPa | 0 mm | - | - | - |
| 1777613233 | 16.67° C | 61% | 1007.8 hPa | 0 mm | - | - | - |
| 1777612333 | 16.67° C | 62% | 1008.1 hPa | 0 mm | - | - | - |
| 1777611433 | 16.67° C | 62% | 1007.8 hPa | 0 mm | - | - | - |
| 1777610533 | 17.22° C | 61% | 1007.4 hPa | 0 mm | - | - | - |
| 1777609632 | 17.22° C | 59% | 1007.4 hPa | 0 mm | - | - | - |
| 1777608732 | 17.78° C | 58% | 1007.1 hPa | 0 mm | - | - | - |
| 1777607832 | 17.78° C | 56% | 1007.4 hPa | 0 mm | - | - | - |
| 1777606932 | 18.33° C | 55% | 1007.1 hPa | 0 mm | - | - | - |
| 1777606032 | 17.78° C | 60% | 1007.1 hPa | 0 mm | - | - | - |
| 1777605132 | 18.33° C | 62% | 1007.1 hPa | 0 mm | - | - | - |
| 1777604232 | 18.33° C | 63% | 1007.4 hPa | 0 mm | - | - | - |
| 1777603332 | 18.33° C | 62% | 1007.1 hPa | 0 mm | - | - | - |
| 1777602432 | 18.89° C | 59% | 1007.1 hPa | 0 mm | - | - | - |
| 1777601532 | 19.44° C | 59% | 1007.4 hPa | 0 mm | - | - | - |
| 1777600632 | 20° C | 58% | 1007.1 hPa | 0 mm | - | - | - |
| 1777599739 | 19.44° C | 58% | 1007.4 hPa | 0 mm | - | - | - |
| 1777598832 | 19.44° C | 58% | 1007.4 hPa | 0 mm | - | - | - |
| 1777597932 | 20.56° C | 56% | 1007.4 hPa | 0 mm | - | - | - |
* Rain latest hour (hover to see other rain measurements)
** Current wind speed in m/s (hover to see current wind gust speed)